Terminal Aerodrome Forecast
Issued by NWS Blacksburg, VA

Current Version | Previous Version | Graphics & Text | Print | Product List | Glossary On
Versions: 1 2 3 4 5 6 7 8 9 10 11 12 13 14 15 16 17 18 19 20 21 22 23 24 25 26 27 28 29 30 31 32 33 34 35 36 37 38 39 40
000
FTUS41 KRNK 212337
TAFBLF
TAF
KBLF 212337Z 2200/2224 00000KT P6SM SCT001 OVC035
     FM220600 VRB03KT P6SM SCT001 OVC020
     FM221000 VRB03KT 5SM BR VCSH SCT001 OVC008
     FM221200 12004KT P6SM VCSH SCT001 OVC008
     FM221300 13007KT 5SM -SHRA OVC008
     FM221700 14008KT 6SM -SHRA OVC020=

USA.gov is the U.S. government's official web portal to all federal, state and local government web resources and services.